sensor_id;sensor_type;location;lat;lon;timestamp;temperature;humidity
2010;DHT22;1008;47.404;8.502;2022-12-18T00:02:08;-0.20;99.90
2010;DHT22;1008;47.404;8.502;2022-12-18T00:04:35;-0.20;99.90
2010;DHT22;1008;47.404;8.502;2022-12-18T00:07:03;-0.20;99.90
2010;DHT22;1008;47.404;8.502;2022-12-18T00:09:30;-0.20;99.90
2010;DHT22;1008;47.404;8.502;2022-12-18T00:11:57;-0.40;99.90
2010;DHT22;1008;47.404;8.502;2022-12-18T00:14:23;-0.50;99.90
2010;DHT22;1008;47.404;8.502;2022-12-18T00:16:50;-0.40;99.90
2010;DHT22;1008;47.404;8.502;2022-12-18T00:19:17;-0.40;99.90
2010;DHT22;1008;47.404;8.502;2022-12-18T00:21:44;-0.30;99.90
2010;DHT22;1008;47.404;8.502;2022-12-18T00:24:12;-0.10;99.90
2010;DHT22;1008;47.404;8.502;2022-12-18T00:26:39;-0.10;99.90
2010;DHT22;1008;47.404;8.502;2022-12-18T00:29:07;-0.20;99.90
2010;DHT22;1008;47.404;8.502;2022-12-18T00:31:34;-0.20;99.90
2010;DHT22;1008;47.404;8.502;2022-12-18T00:34:01;-0.20;99.90
2010;DHT22;1008;47.404;8.502;2022-12-18T00:36:31;-0.20;99.90
2010;DHT22;1008;47.404;8.502;2022-12-18T00:39:02;-0.20;99.90
2010;DHT22;1008;47.404;8.502;2022-12-18T00:41:31;-0.30;99.90
2010;DHT22;1008;47.404;8.502;2022-12-18T00:44:16;-0.20;99.90
2010;DHT22;1008;47.404;8.502;2022-12-18T00:46:44;-0.20;99.90
2010;DHT22;1008;47.404;8.502;2022-12-18T00:49:11;-0.20;99.90
2010;DHT22;1008;47.404;8.502;2022-12-18T00:51:38;-0.10;99.90
2010;DHT22;1008;47.404;8.502;2022-12-18T00:54:05;-0.10;99.90
2010;DHT22;1008;47.404;8.502;2022-12-18T00:56:35;-0.20;99.90
2010;DHT22;1008;47.404;8.502;2022-12-18T00:59:02;-0.20;99.90
2010;DHT22;1008;47.404;8.502;2022-12-18T01:01:29;-0.20;99.90
2010;DHT22;1008;47.404;8.502;2022-12-18T01:03:55;0.10;99.90
2010;DHT22;1008;47.404;8.502;2022-12-18T01:06:22;-0.20;99.90
2010;DHT22;1008;47.404;8.502;2022-12-18T01:08:49;-0.20;99.90
2010;DHT22;1008;47.404;8.502;2022-12-18T01:11:18;-0.20;99.90
2010;DHT22;1008;47.404;8.502;2022-12-18T01:13:46;-0.20;99.90
2010;DHT22;1008;47.404;8.502;2022-12-18T01:16:14;-0.20;99.90
2010;DHT22;1008;47.404;8.502;2022-12-18T01:18:41;-0.10;99.90
2010;DHT22;1008;47.404;8.502;2022-12-18T01:21:09;0.00;99.90
2010;DHT22;1008;47.404;8.502;2022-12-18T01:23:36;-0.10;99.90
2010;DHT22;1008;47.404;8.502;2022-12-18T01:26:05;-0.20;99.90
2010;DHT22;1008;47.404;8.502;2022-12-18T01:28:32;-0.20;99.90
2010;DHT22;1008;47.404;8.502;2022-12-18T01:31:14;-0.20;99.90
2010;DHT22;1008;47.404;8.502;2022-12-18T01:33:41;-0.20;99.90
2010;DHT22;1008;47.404;8.502;2022-12-18T01:36:08;-0.40;99.90
2010;DHT22;1008;47.404;8.502;2022-12-18T01:38:35;-0.50;99.90
2010;DHT22;1008;47.404;8.502;2022-12-18T01:41:02;-0.30;99.90
2010;DHT22;1008;47.404;8.502;2022-12-18T01:43:43;-0.10;99.90
2010;DHT22;1008;47.404;8.502;2022-12-18T01:46:11;-0.10;99.90
2010;DHT22;1008;47.404;8.502;2022-12-18T01:48:39;-0.10;99.90
2010;DHT22;1008;47.404;8.502;2022-12-18T01:51:08;-0.20;99.90
2010;DHT22;1008;47.404;8.502;2022-12-18T01:53:36;-0.60;99.90
2010;DHT22;1008;47.404;8.502;2022-12-18T01:56:03;-0.40;99.90
2010;DHT22;1008;47.404;8.502;2022-12-18T01:58:34;-0.60;99.90
2010;DHT22;1008;47.404;8.502;2022-12-18T02:01:02;-0.50;99.90
2010;DHT22;1008;47.404;8.502;2022-12-18T02:03:30;-0.60;99.90
2010;DHT22;1008;47.404;8.502;2022-12-18T02:06:02;-0.50;99.90
2010;DHT22;1008;47.404;8.502;2022-12-18T02:08:39;-0.50;99.90
2010;DHT22;1008;47.404;8.502;2022-12-18T02:11:10;-0.40;99.90
2010;DHT22;1008;47.404;8.502;2022-12-18T02:13:46;-0.60;99.90
2010;DHT22;1008;47.404;8.502;2022-12-18T02:16:24;-0.50;99.90
2010;DHT22;1008;47.404;8.502;2022-12-18T02:18:58;-0.50;99.90
2010;DHT22;1008;47.404;8.502;2022-12-18T02:21:33;-0.50;99.90
2010;DHT22;1008;47.404;8.502;2022-12-18T02:24:13;-0.30;99.90
2010;DHT22;1008;47.404;8.502;2022-12-18T02:26:46;-0.30;99.90
2010;DHT22;1008;47.404;8.502;2022-12-18T02:29:16;-0.30;99.90
2010;DHT22;1008;47.404;8.502;2022-12-18T02:31:47;-0.30;99.90
2010;DHT22;1008;47.404;8.502;2022-12-18T02:34:16;-0.20;99.90
2010;DHT22;1008;47.404;8.502;2022-12-18T02:36:45;-0.50;99.90
2010;DHT22;1008;47.404;8.502;2022-12-18T02:39:13;-0.30;99.90
2010;DHT22;1008;47.404;8.502;2022-12-18T02:41:41;-0.30;99.90
2010;DHT22;1008;47.404;8.502;2022-12-18T02:44:13;-0.20;99.90
2010;DHT22;1008;47.404;8.502;2022-12-18T02:46:42;-0.20;99.90
2010;DHT22;1008;47.404;8.502;2022-12-18T02:49:22;-0.20;99.90
2010;DHT22;1008;47.404;8.502;2022-12-18T02:51:54;-0.20;99.90
2010;DHT22;1008;47.404;8.502;2022-12-18T02:54:41;-0.20;99.90
2010;DHT22;1008;47.404;8.502;2022-12-18T02:57:16;0.00;99.90
2010;DHT22;1008;47.404;8.502;2022-12-18T02:59:55;-0.30;99.90
2010;DHT22;1008;47.404;8.502;2022-12-18T03:02:26;0.10;99.90
2010;DHT22;1008;47.404;8.502;2022-12-18T03:05:01;-0.10;99.90
2010;DHT22;1008;47.404;8.502;2022-12-18T03:07:36;-0.20;99.90
2010;DHT22;1008;47.404;8.502;2022-12-18T03:10:07;-0.20;99.90
2010;DHT22;1008;47.404;8.502;2022-12-18T03:12:37;-0.30;99.90
2010;DHT22;1008;47.404;8.502;2022-12-18T03:15:11;-0.20;99.90
2010;DHT22;1008;47.404;8.502;2022-12-18T03:17:40;-0.20;99.90
2010;DHT22;1008;47.404;8.502;2022-12-18T03:20:12;-0.30;99.90
2010;DHT22;1008;47.404;8.502;2022-12-18T03:22:41;-0.30;99.90
2010;DHT22;1008;47.404;8.502;2022-12-18T03:25:13;-0.30;99.90
2010;DHT22;1008;47.404;8.502;2022-12-18T03:27:45;-0.30;99.90
2010;DHT22;1008;47.404;8.502;2022-12-18T03:30:17;-0.30;99.90
2010;DHT22;1008;47.404;8.502;2022-12-18T03:32:48;-0.30;99.90
2010;DHT22;1008;47.404;8.502;2022-12-18T03:35:22;-0.20;99.90
2010;DHT22;1008;47.404;8.502;2022-12-18T03:37:49;-0.30;99.90
2010;DHT22;1008;47.404;8.502;2022-12-18T03:40:16;-0.20;99.90
2010;DHT22;1008;47.404;8.502;2022-12-18T03:42:46;-0.30;99.90
2010;DHT22;1008;47.404;8.502;2022-12-18T03:45:21;-0.20;99.90
2010;DHT22;1008;47.404;8.502;2022-12-18T03:47:58;0.00;99.90
2010;DHT22;1008;47.404;8.502;2022-12-18T03:50:33;-0.40;99.90
2010;DHT22;1008;47.404;8.502;2022-12-18T03:53:08;-0.20;99.90
2010;DHT22;1008;47.404;8.502;2022-12-18T03:55:37;-0.30;99.90
2010;DHT22;1008;47.404;8.502;2022-12-18T03:58:06;-0.20;99.90
2010;DHT22;1008;47.404;8.502;2022-12-18T04:00:35;-0.30;99.90
2010;DHT22;1008;47.404;8.502;2022-12-18T04:03:04;-0.10;99.90
2010;DHT22;1008;47.404;8.502;2022-12-18T04:05:32;-0.10;99.90
2010;DHT22;1008;47.404;8.502;2022-12-18T04:08:00;-0.20;99.90
2010;DHT22;1008;47.404;8.502;2022-12-18T04:10:28;-0.10;99.90
2010;DHT22;1008;47.404;8.502;2022-12-18T04:12:56;-0.10;99.90
2010;DHT22;1008;47.404;8.502;2022-12-18T04:15:23;-0.20;99.90
2010;DHT22;1008;47.404;8.502;2022-12-18T04:17:51;-0.40;99.90
2010;DHT22;1008;47.404;8.502;2022-12-18T04:20:18;-0.30;99.90
2010;DHT22;1008;47.404;8.502;2022-12-18T04:22:45;-0.20;99.90
2010;DHT22;1008;47.404;8.502;2022-12-18T04:25:12;-0.10;99.90
2010;DHT22;1008;47.404;8.502;2022-12-18T04:27:39;-0.10;99.90
2010;DHT22;1008;47.404;8.502;2022-12-18T04:30:07;0.00;99.90
2010;DHT22;1008;47.404;8.502;2022-12-18T04:32:34;0.10;99.90
2010;DHT22;1008;47.404;8.502;2022-12-18T04:35:03;0.00;99.90
2010;DHT22;1008;47.404;8.502;2022-12-18T04:37:32;-0.10;99.90
2010;DHT22;1008;47.404;8.502;2022-12-18T04:39:58;-0.20;99.90
2010;DHT22;1008;47.404;8.502;2022-12-18T04:42:25;-0.10;99.90
2010;DHT22;1008;47.404;8.502;2022-12-18T04:44:52;0.00;99.90
2010;DHT22;1008;47.404;8.502;2022-12-18T04:47:19;-0.10;99.90
2010;DHT22;1008;47.404;8.502;2022-12-18T04:49:45;-0.10;99.90
2010;DHT22;1008;47.404;8.502;2022-12-18T04:52:13;-0.10;99.90
2010;DHT22;1008;47.404;8.502;2022-12-18T04:54:40;-0.10;99.90
2010;DHT22;1008;47.404;8.502;2022-12-18T04:57:07;0.00;99.90
2010;DHT22;1008;47.404;8.502;2022-12-18T04:59:33;0.00;99.90
2010;DHT22;1008;47.404;8.502;2022-12-18T05:02:00;0.00;99.90
2010;DHT22;1008;47.404;8.502;2022-12-18T05:04:27;0.00;99.90
2010;DHT22;1008;47.404;8.502;2022-12-18T05:06:54;0.00;99.90
2010;DHT22;1008;47.404;8.502;2022-12-18T05:09:23;-0.10;99.90
2010;DHT22;1008;47.404;8.502;2022-12-18T05:11:49;-0.20;99.90
2010;DHT22;1008;47.404;8.502;2022-12-18T05:14:16;0.10;99.90
2010;DHT22;1008;47.404;8.502;2022-12-18T05:16:43;0.00;99.90
2010;DHT22;1008;47.404;8.502;2022-12-18T05:19:10;-0.10;99.90
2010;DHT22;1008;47.404;8.502;2022-12-18T05:21:36;-0.20;99.90
2010;DHT22;1008;47.404;8.502;2022-12-18T05:24:04;-0.10;99.90
2010;DHT22;1008;47.404;8.502;2022-12-18T05:26:32;-0.20;99.90
2010;DHT22;1008;47.404;8.502;2022-12-18T05:28:59;-0.10;99.90
2010;DHT22;1008;47.404;8.502;2022-12-18T05:31:25;-0.10;99.90
2010;DHT22;1008;47.404;8.502;2022-12-18T05:33:52;-0.10;99.90
2010;DHT22;1008;47.404;8.502;2022-12-18T05:36:19;-0.20;99.90
2010;DHT22;1008;47.404;8.502;2022-12-18T05:38:46;-0.30;99.90
2010;DHT22;1008;47.404;8.502;2022-12-18T05:41:12;-0.30;99.90
2010;DHT22;1008;47.404;8.502;2022-12-18T05:43:41;-0.40;99.90
2010;DHT22;1008;47.404;8.502;2022-12-18T05:46:09;-0.40;99.90
2010;DHT22;1008;47.404;8.502;2022-12-18T05:48:37;-0.20;99.90
2010;DHT22;1008;47.404;8.502;2022-12-18T05:51:06;0.10;99.90
2010;DHT22;1008;47.404;8.502;2022-12-18T05:53:33;0.00;99.90
2010;DHT22;1008;47.404;8.502;2022-12-18T05:56:01;-0.20;99.90
2010;DHT22;1008;47.404;8.502;2022-12-18T05:58:28;-0.30;99.90
2010;DHT22;1008;47.404;8.502;2022-12-18T06:00:57;-0.30;99.90
2010;DHT22;1008;47.404;8.502;2022-12-18T06:03:24;-0.10;99.90
2010;DHT22;1008;47.404;8.502;2022-12-18T06:05:51;-0.10;99.90
2010;DHT22;1008;47.404;8.502;2022-12-18T06:08:18;0.00;99.90
2010;DHT22;1008;47.404;8.502;2022-12-18T06:10:50;-0.10;99.90
2010;DHT22;1008;47.404;8.502;2022-12-18T06:13:18;0.00;99.90
2010;DHT22;1008;47.404;8.502;2022-12-18T06:15:45;-0.10;99.90
2010;DHT22;1008;47.404;8.502;2022-12-18T06:18:13;-0.10;99.90
2010;DHT22;1008;47.404;8.502;2022-12-18T06:20:40;0.00;99.90
2010;DHT22;1008;47.404;8.502;2022-12-18T06:23:07;0.00;99.90
2010;DHT22;1008;47.404;8.502;2022-12-18T06:25:37;-0.20;99.90
2010;DHT22;1008;47.404;8.502;2022-12-18T06:28:04;-0.20;99.90
2010;DHT22;1008;47.404;8.502;2022-12-18T06:30:31;-0.10;99.90
2010;DHT22;1008;47.404;8.502;2022-12-18T06:32:58;-0.20;99.90
2010;DHT22;1008;47.404;8.502;2022-12-18T06:35:26;-0.40;99.90
2010;DHT22;1008;47.404;8.502;2022-12-18T06:37:53;-0.40;99.90
2010;DHT22;1008;47.404;8.502;2022-12-18T06:40:19;-0.20;99.90
2010;DHT22;1008;47.404;8.502;2022-12-18T06:42:46;-0.20;99.90
2010;DHT22;1008;47.404;8.502;2022-12-18T06:45:13;-0.30;99.90
2010;DHT22;1008;47.404;8.502;2022-12-18T06:47:40;-0.30;99.90
2010;DHT22;1008;47.404;8.502;2022-12-18T06:50:07;-0.30;99.90
2010;DHT22;1008;47.404;8.502;2022-12-18T06:52:35;-0.20;99.90
2010;DHT22;1008;47.404;8.502;2022-12-18T06:55:03;-0.30;99.90
2010;DHT22;1008;47.404;8.502;2022-12-18T06:57:29;-0.10;99.90
2010;DHT22;1008;47.404;8.502;2022-12-18T06:59:56;0.10;99.90
2010;DHT22;1008;47.404;8.502;2022-12-18T07:02:23;0.20;99.90
2010;DHT22;1008;47.404;8.502;2022-12-18T07:04:49;0.20;99.90
2010;DHT22;1008;47.404;8.502;2022-12-18T07:07:17;0.30;99.90
2010;DHT22;1008;47.404;8.502;2022-12-18T07:09:45;0.30;99.90
2010;DHT22;1008;47.404;8.502;2022-12-18T07:12:11;0.30;99.90
2010;DHT22;1008;47.404;8.502;2022-12-18T07:14:38;0.30;99.90
2010;DHT22;1008;47.404;8.502;2022-12-18T07:17:05;0.20;99.90
2010;DHT22;1008;47.404;8.502;2022-12-18T07:19:32;0.20;99.90
2010;DHT22;1008;47.404;8.502;2022-12-18T07:21:59;0.10;99.90
2010;DHT22;1008;47.404;8.502;2022-12-18T07:24:25;0.20;99.90
2010;DHT22;1008;47.404;8.502;2022-12-18T07:26:54;0.20;99.90
2010;DHT22;1008;47.404;8.502;2022-12-18T07:29:20;0.00;99.90
2010;DHT22;1008;47.404;8.502;2022-12-18T07:31:47;0.10;99.90
2010;DHT22;1008;47.404;8.502;2022-12-18T07:34:14;0.20;99.90
2010;DHT22;1008;47.404;8.502;2022-12-18T07:36:41;0.30;99.90
2010;DHT22;1008;47.404;8.502;2022-12-18T07:39:09;0.40;99.90
2010;DHT22;1008;47.404;8.502;2022-12-18T07:41:36;0.60;99.90
2010;DHT22;1008;47.404;8.502;2022-12-18T07:44:05;0.80;99.90
2010;DHT22;1008;47.404;8.502;2022-12-18T07:46:32;0.80;99.90
2010;DHT22;1008;47.404;8.502;2022-12-18T07:48:58;0.60;99.90
2010;DHT22;1008;47.404;8.502;2022-12-18T07:51:25;0.60;99.90
2010;DHT22;1008;47.404;8.502;2022-12-18T07:53:52;0.80;99.90
2010;DHT22;1008;47.404;8.502;2022-12-18T07:56:19;0.70;99.90
2010;DHT22;1008;47.404;8.502;2022-12-18T07:58:46;0.60;99.90
2010;DHT22;1008;47.404;8.502;2022-12-18T08:01:14;0.40;99.90
2010;DHT22;1008;47.404;8.502;2022-12-18T08:03:41;0.40;99.90
2010;DHT22;1008;47.404;8.502;2022-12-18T08:06:09;0.20;99.90
2010;DHT22;1008;47.404;8.502;2022-12-18T08:08:36;0.50;99.90
2010;DHT22;1008;47.404;8.502;2022-12-18T08:11:03;0.60;99.90
2010;DHT22;1008;47.404;8.502;2022-12-18T08:13:30;0.70;99.90
2010;DHT22;1008;47.404;8.502;2022-12-18T08:15:57;0.70;99.90
2010;DHT22;1008;47.404;8.502;2022-12-18T08:18:26;0.60;99.90
2010;DHT22;1008;47.404;8.502;2022-12-18T08:20:53;0.50;99.90
2010;DHT22;1008;47.404;8.502;2022-12-18T08:23:20;0.40;99.90
2010;DHT22;1008;47.404;8.502;2022-12-18T08:25:47;0.60;99.90
2010;DHT22;1008;47.404;8.502;2022-12-18T08:28:14;0.70;99.90
2010;DHT22;1008;47.404;8.502;2022-12-18T08:30:40;0.60;99.90
2010;DHT22;1008;47.404;8.502;2022-12-18T08:33:07;0.60;99.90
2010;DHT22;1008;47.404;8.502;2022-12-18T08:35:36;0.40;99.90
2010;DHT22;1008;47.404;8.502;2022-12-18T08:38:03;0.50;99.90
2010;DHT22;1008;47.404;8.502;2022-12-18T08:40:30;0.40;99.90
2010;DHT22;1008;47.404;8.502;2022-12-18T08:42:56;0.60;99.90
2010;DHT22;1008;47.404;8.502;2022-12-18T08:45:37;0.30;99.90
2010;DHT22;1008;47.404;8.502;2022-12-18T08:48:04;0.40;99.90
2010;DHT22;1008;47.404;8.502;2022-12-18T08:50:31;0.30;99.90
2010;DHT22;1008;47.404;8.502;2022-12-18T08:52:59;0.40;99.90
2010;DHT22;1008;47.404;8.502;2022-12-18T08:55:26;0.40;99.90
2010;DHT22;1008;47.404;8.502;2022-12-18T08:57:53;0.20;99.90
2010;DHT22;1008;47.404;8.502;2022-12-18T09:00:20;0.20;99.90
2010;DHT22;1008;47.404;8.502;2022-12-18T09:02:47;0.20;99.90
2010;DHT22;1008;47.404;8.502;2022-12-18T09:05:13;0.10;99.90
2010;DHT22;1008;47.404;8.502;2022-12-18T09:07:40;0.10;99.90
2010;DHT22;1008;47.404;8.502;2022-12-18T09:10:09;0.20;99.90
2010;DHT22;1008;47.404;8.502;2022-12-18T09:12:35;0.10;99.90
2010;DHT22;1008;47.404;8.502;2022-12-18T09:15:03;0.20;99.90
2010;DHT22;1008;47.404;8.502;2022-12-18T09:17:29;0.50;99.90
2010;DHT22;1008;47.404;8.502;2022-12-18T09:19:56;0.30;99.90
2010;DHT22;1008;47.404;8.502;2022-12-18T09:22:23;0.40;99.90
2010;DHT22;1008;47.404;8.502;2022-12-18T09:24:50;0.40;99.90
2010;DHT22;1008;47.404;8.502;2022-12-18T09:27:18;0.40;99.90
2010;DHT22;1008;47.404;8.502;2022-12-18T09:29:44;0.60;99.90
2010;DHT22;1008;47.404;8.502;2022-12-18T09:32:11;0.30;99.90
2010;DHT22;1008;47.404;8.502;2022-12-18T09:34:38;0.50;99.90
2010;DHT22;1008;47.404;8.502;2022-12-18T09:37:05;0.60;99.90
2010;DHT22;1008;47.404;8.502;2022-12-18T09:39:32;0.50;99.90
2010;DHT22;1008;47.404;8.502;2022-12-18T09:41:58;0.60;99.90
2010;DHT22;1008;47.404;8.502;2022-12-18T09:44:29;0.60;99.90
2010;DHT22;1008;47.404;8.502;2022-12-18T09:47:04;0.60;99.90
2010;DHT22;1008;47.404;8.502;2022-12-18T09:49:35;0.50;99.90
2010;DHT22;1008;47.404;8.502;2022-12-18T09:52:08;0.40;99.90
2010;DHT22;1008;47.404;8.502;2022-12-18T09:54:38;0.40;99.90
2010;DHT22;1008;47.404;8.502;2022-12-18T09:57:06;0.50;99.90
2010;DHT22;1008;47.404;8.502;2022-12-18T09:59:43;0.60;99.90
2010;DHT22;1008;47.404;8.502;2022-12-18T10:02:15;0.60;99.90
2010;DHT22;1008;47.404;8.502;2022-12-18T10:04:42;0.60;99.90
2010;DHT22;1008;47.404;8.502;2022-12-18T10:07:14;0.60;99.90
2010;DHT22;1008;47.404;8.502;2022-12-18T10:09:46;0.50;99.90
2010;DHT22;1008;47.404;8.502;2022-12-18T10:12:21;0.60;99.90
2010;DHT22;1008;47.404;8.502;2022-12-18T10:14:54;0.40;99.90
2010;DHT22;1008;47.404;8.502;2022-12-18T10:17:28;0.40;99.90
2010;DHT22;1008;47.404;8.502;2022-12-18T10:20:02;0.60;99.90
2010;DHT22;1008;47.404;8.502;2022-12-18T10:22:42;0.60;99.90
2010;DHT22;1008;47.404;8.502;2022-12-18T10:25:19;0.60;99.90
2010;DHT22;1008;47.404;8.502;2022-12-18T10:27:48;0.80;99.90
2010;DHT22;1008;47.404;8.502;2022-12-18T10:30:21;0.40;99.90
2010;DHT22;1008;47.404;8.502;2022-12-18T10:32:48;0.40;99.90
2010;DHT22;1008;47.404;8.502;2022-12-18T10:35:18;0.30;99.90
2010;DHT22;1008;47.404;8.502;2022-12-18T10:38:07;0.30;99.90
2010;DHT22;1008;47.404;8.502;2022-12-18T10:40:52;0.40;99.90
2010;DHT22;1008;47.404;8.502;2022-12-18T10:43:24;0.50;99.90
2010;DHT22;1008;47.404;8.502;2022-12-18T10:46:02;0.60;99.90
2010;DHT22;1008;47.404;8.502;2022-12-18T10:48:32;0.70;99.90
2010;DHT22;1008;47.404;8.502;2022-12-18T10:51:00;0.70;99.90
2010;DHT22;1008;47.404;8.502;2022-12-18T10:53:28;0.60;99.90
2010;DHT22;1008;47.404;8.502;2022-12-18T10:55:58;0.50;99.90
2010;DHT22;1008;47.404;8.502;2022-12-18T10:58:28;0.70;99.90
2010;DHT22;1008;47.404;8.502;2022-12-18T11:01:10;0.80;99.90
2010;DHT22;1008;47.404;8.502;2022-12-18T11:03:39;0.70;99.90
2010;DHT22;1008;47.404;8.502;2022-12-18T11:06:08;0.80;99.90
2010;DHT22;1008;47.404;8.502;2022-12-18T11:08:36;0.80;99.90
2010;DHT22;1008;47.404;8.502;2022-12-18T11:11:06;0.70;99.90
2010;DHT22;1008;47.404;8.502;2022-12-18T11:13:33;0.70;99.90
2010;DHT22;1008;47.404;8.502;2022-12-18T11:16:01;0.80;99.90
2010;DHT22;1008;47.404;8.502;2022-12-18T11:18:31;1.70;99.90
2010;DHT22;1008;47.404;8.502;2022-12-18T11:21:04;2.10;99.90
2010;DHT22;1008;47.404;8.502;2022-12-18T11:23:33;1.90;99.90
2010;DHT22;1008;47.404;8.502;2022-12-18T11:26:02;1.80;99.90
2010;DHT22;1008;47.404;8.502;2022-12-18T11:28:36;1.90;99.90
2010;DHT22;1008;47.404;8.502;2022-12-18T11:31:27;2.00;99.90
2010;DHT22;1008;47.404;8.502;2022-12-18T11:34:01;1.60;99.90
2010;DHT22;1008;47.404;8.502;2022-12-18T11:36:32;1.30;99.90
2010;DHT22;1008;47.404;8.502;2022-12-18T11:39:03;0.90;99.90
2010;DHT22;1008;47.404;8.502;2022-12-18T11:41:36;1.00;99.90
2010;DHT22;1008;47.404;8.502;2022-12-18T11:44:25;1.40;99.90
2010;DHT22;1008;47.404;8.502;2022-12-18T11:46:56;1.60;99.90
2010;DHT22;1008;47.404;8.502;2022-12-18T11:49:29;1.50;99.90
2010;DHT22;1008;47.404;8.502;2022-12-18T11:52:04;1.40;99.90
2010;DHT22;1008;47.404;8.502;2022-12-18T11:54:34;1.50;99.90
2010;DHT22;1008;47.404;8.502;2022-12-18T11:57:06;1.50;99.90
2010;DHT22;1008;47.404;8.502;2022-12-18T11:59:40;1.60;99.90
2010;DHT22;1008;47.404;8.502;2022-12-18T12:02:29;1.30;99.90
2010;DHT22;1008;47.404;8.502;2022-12-18T12:05:11;1.30;99.90
2010;DHT22;1008;47.404;8.502;2022-12-18T12:07:46;1.50;99.90
2010;DHT22;1008;47.404;8.502;2022-12-18T12:10:25;1.60;99.90
2010;DHT22;1008;47.404;8.502;2022-12-18T12:13:19;1.60;99.90
2010;DHT22;1008;47.404;8.502;2022-12-18T12:16:02;1.90;99.90
2010;DHT22;1008;47.404;8.502;2022-12-18T12:18:38;2.10;99.90
2010;DHT22;1008;47.404;8.502;2022-12-18T12:21:17;2.30;99.90
2010;DHT22;1008;47.404;8.502;2022-12-18T12:23:51;2.30;99.90
2010;DHT22;1008;47.404;8.502;2022-12-18T12:26:27;2.40;99.90
2010;DHT22;1008;47.404;8.502;2022-12-18T12:29:14;2.50;99.90
2010;DHT22;1008;47.404;8.502;2022-12-18T12:31:59;2.40;99.90
2010;DHT22;1008;47.404;8.502;2022-12-18T12:34:36;2.20;99.90
2010;DHT22;1008;47.404;8.502;2022-12-18T12:37:15;2.00;99.90
2010;DHT22;1008;47.404;8.502;2022-12-18T12:39:47;1.60;99.90
2010;DHT22;1008;47.404;8.502;2022-12-18T12:42:18;1.40;99.90
2010;DHT22;1008;47.404;8.502;2022-12-18T12:45:05;1.40;99.90
2010;DHT22;1008;47.404;8.502;2022-12-18T12:47:37;1.40;99.90
2010;DHT22;1008;47.404;8.502;2022-12-18T12:50:11;1.30;99.90
2010;DHT22;1008;47.404;8.502;2022-12-18T12:52:43;1.50;99.90
2010;DHT22;1008;47.404;8.502;2022-12-18T12:55:16;1.70;99.90
2010;DHT22;1008;47.404;8.502;2022-12-18T12:57:46;1.60;99.90
2010;DHT22;1008;47.404;8.502;2022-12-18T13:00:17;1.60;99.90
2010;DHT22;1008;47.404;8.502;2022-12-18T13:02:50;1.60;99.90
2010;DHT22;1008;47.404;8.502;2022-12-18T13:05:21;1.60;99.90
2010;DHT22;1008;47.404;8.502;2022-12-18T13:07:55;1.40;99.90
2010;DHT22;1008;47.404;8.502;2022-12-18T13:10:31;1.50;99.90
2010;DHT22;1008;47.404;8.502;2022-12-18T13:12:59;1.50;99.90
2010;DHT22;1008;47.404;8.502;2022-12-18T13:15:34;1.50;99.90
2010;DHT22;1008;47.404;8.502;2022-12-18T13:18:05;1.60;99.90
2010;DHT22;1008;47.404;8.502;2022-12-18T13:20:34;1.40;99.90
2010;DHT22;1008;47.404;8.502;2022-12-18T13:23:20;1.50;99.90
2010;DHT22;1008;47.404;8.502;2022-12-18T13:25:52;1.60;99.90
2010;DHT22;1008;47.404;8.502;2022-12-18T13:28:21;1.70;99.90
2010;DHT22;1008;47.404;8.502;2022-12-18T13:30:55;1.60;99.90
2010;DHT22;1008;47.404;8.502;2022-12-18T13:33:49;1.90;99.90
2010;DHT22;1008;47.404;8.502;2022-12-18T13:36:28;1.80;99.90
2010;DHT22;1008;47.404;8.502;2022-12-18T13:39:23;1.80;99.90
2010;DHT22;1008;47.404;8.502;2022-12-18T13:41:52;1.90;99.90
2010;DHT22;1008;47.404;8.502;2022-12-18T13:44:27;1.90;99.90
2010;DHT22;1008;47.404;8.502;2022-12-18T13:46:57;1.90;99.90
2010;DHT22;1008;47.404;8.502;2022-12-18T13:49:26;1.90;99.90
2010;DHT22;1008;47.404;8.502;2022-12-18T13:51:55;1.60;99.90
2010;DHT22;1008;47.404;8.502;2022-12-18T13:54:28;1.80;99.90
2010;DHT22;1008;47.404;8.502;2022-12-18T13:56:56;2.00;99.90
2010;DHT22;1008;47.404;8.502;2022-12-18T13:59:24;2.20;99.90
2010;DHT22;1008;47.404;8.502;2022-12-18T14:01:53;2.10;99.90
2010;DHT22;1008;47.404;8.502;2022-12-18T14:04:26;2.00;99.90
2010;DHT22;1008;47.404;8.502;2022-12-18T14:06:56;1.90;99.90
2010;DHT22;1008;47.404;8.502;2022-12-18T14:09:27;1.60;99.90
2010;DHT22;1008;47.404;8.502;2022-12-18T14:11:55;1.60;99.90
2010;DHT22;1008;47.404;8.502;2022-12-18T14:14:45;1.70;99.90
2010;DHT22;1008;47.404;8.502;2022-12-18T14:17:14;1.70;99.90
2010;DHT22;1008;47.404;8.502;2022-12-18T14:19:43;1.50;99.90
2010;DHT22;1008;47.404;8.502;2022-12-18T14:22:15;1.60;99.90
2010;DHT22;1008;47.404;8.502;2022-12-18T14:24:44;1.60;99.90
2010;DHT22;1008;47.404;8.502;2022-12-18T14:27:21;1.80;99.90
2010;DHT22;1008;47.404;8.502;2022-12-18T14:29:48;2.00;99.90
2010;DHT22;1008;47.404;8.502;2022-12-18T14:32:16;1.80;99.90
2010;DHT22;1008;47.404;8.502;2022-12-18T14:34:44;1.90;99.90
2010;DHT22;1008;47.404;8.502;2022-12-18T14:37:13;2.10;99.90
2010;DHT22;1008;47.404;8.502;2022-12-18T14:39:40;2.20;99.90
2010;DHT22;1008;47.404;8.502;2022-12-18T14:42:11;1.90;99.90
2010;DHT22;1008;47.404;8.502;2022-12-18T14:44:38;1.70;99.90
2010;DHT22;1008;47.404;8.502;2022-12-18T14:47:05;1.70;99.90
2010;DHT22;1008;47.404;8.502;2022-12-18T14:49:33;2.00;99.90
2010;DHT22;1008;47.404;8.502;2022-12-18T14:52:03;2.00;99.90
2010;DHT22;1008;47.404;8.502;2022-12-18T14:54:32;2.20;99.90
2010;DHT22;1008;47.404;8.502;2022-12-18T14:57:02;2.30;99.90
2010;DHT22;1008;47.404;8.502;2022-12-18T14:59:31;1.90;99.90
2010;DHT22;1008;47.404;8.502;2022-12-18T15:02:01;1.90;99.90
2010;DHT22;1008;47.404;8.502;2022-12-18T15:04:32;1.70;99.90
2010;DHT22;1008;47.404;8.502;2022-12-18T15:07:19;1.60;99.90
2010;DHT22;1008;47.404;8.502;2022-12-18T15:10:02;1.50;99.90
2010;DHT22;1008;47.404;8.502;2022-12-18T15:12:34;1.40;99.90
2010;DHT22;1008;47.404;8.502;2022-12-18T15:15:03;1.40;99.90
2010;DHT22;1008;47.404;8.502;2022-12-18T15:17:31;1.40;99.90
2010;DHT22;1008;47.404;8.502;2022-12-18T15:20:00;1.40;99.90
2010;DHT22;1008;47.404;8.502;2022-12-18T15:22:29;1.30;99.90
2010;DHT22;1008;47.404;8.502;2022-12-18T15:24:57;1.10;99.90
2010;DHT22;1008;47.404;8.502;2022-12-18T15:27:28;0.80;99.90
2010;DHT22;1008;47.404;8.502;2022-12-18T15:30:27;0.90;99.90
2010;DHT22;1008;47.404;8.502;2022-12-18T15:33:22;1.10;99.90
2010;DHT22;1008;47.404;8.502;2022-12-18T15:35:56;1.40;99.90
2010;DHT22;1008;47.404;8.502;2022-12-18T15:38:23;1.40;99.90
2010;DHT22;1008;47.404;8.502;2022-12-18T15:40:49;1.30;99.90
2010;DHT22;1008;47.404;8.502;2022-12-18T15:43:16;1.20;99.90
2010;DHT22;1008;47.404;8.502;2022-12-18T15:46:05;1.10;99.90
2010;DHT22;1008;47.404;8.502;2022-12-18T15:48:33;1.30;99.90
2010;DHT22;1008;47.404;8.502;2022-12-18T15:51:01;1.20;99.90
2010;DHT22;1008;47.404;8.502;2022-12-18T15:53:30;1.60;99.90
2010;DHT22;1008;47.404;8.502;2022-12-18T15:55:58;1.20;99.90
2010;DHT22;1008;47.404;8.502;2022-12-18T15:58:42;1.20;99.90
2010;DHT22;1008;47.404;8.502;2022-12-18T16:01:11;1.30;99.90
2010;DHT22;1008;47.404;8.502;2022-12-18T16:03:38;1.20;99.90
2010;DHT22;1008;47.404;8.502;2022-12-18T16:06:05;1.20;99.90
2010;DHT22;1008;47.404;8.502;2022-12-18T16:08:32;1.20;99.90
2010;DHT22;1008;47.404;8.502;2022-12-18T16:10:59;1.20;99.90
2010;DHT22;1008;47.404;8.502;2022-12-18T16:13:26;1.10;99.90
2010;DHT22;1008;47.404;8.502;2022-12-18T16:15:53;1.20;99.90
2010;DHT22;1008;47.404;8.502;2022-12-18T16:18:21;1.10;99.90
2010;DHT22;1008;47.404;8.502;2022-12-18T16:20:48;1.10;99.90
2010;DHT22;1008;47.404;8.502;2022-12-18T16:23:15;1.00;99.90
2010;DHT22;1008;47.404;8.502;2022-12-18T16:25:42;1.00;99.90
2010;DHT22;1008;47.404;8.502;2022-12-18T16:28:08;1.00;99.90
2010;DHT22;1008;47.404;8.502;2022-12-18T16:30:35;1.00;99.90
2010;DHT22;1008;47.404;8.502;2022-12-18T16:33:02;1.10;99.90